sensor_id;sensor_type;location;lat;lon;timestamp;P1;durP1;ratioP1;P2;durP2;ratioP2
57573;SDS011;43409;48.858;21.906;2022-08-19T00:00:00;5.05;;;4.65;;
57573;SDS011;43409;48.858;21.906;2022-08-19T00:02:26;6.93;;;4.30;;
57573;SDS011;43409;48.858;21.906;2022-08-19T00:04:52;8.18;;;4.30;;
57573;SDS011;43409;48.858;21.906;2022-08-19T00:07:20;4.60;;;4.20;;
57573;SDS011;43409;48.858;21.906;2022-08-19T00:09:46;5.40;;;4.88;;
57573;SDS011;43409;48.858;21.906;2022-08-19T00:12:11;5.53;;;4.40;;
57573;SDS011;43409;48.858;21.906;2022-08-19T00:14:37;4.53;;;4.10;;
57573;SDS011;43409;48.858;21.906;2022-08-19T00:17:03;9.50;;;4.20;;
57573;SDS011;43409;48.858;21.906;2022-08-19T00:19:31;7.05;;;4.38;;
57573;SDS011;43409;48.858;21.906;2022-08-19T00:21:57;5.38;;;4.00;;
57573;SDS011;43409;48.858;21.906;2022-08-19T00:24:23;4.97;;;4.43;;
57573;SDS011;43409;48.858;21.906;2022-08-19T00:26:50;5.53;;;4.40;;
57573;SDS011;43409;48.858;21.906;2022-08-19T00:29:18;6.95;;;4.47;;
57573;SDS011;43409;48.858;21.906;2022-08-19T00:31:45;5.65;;;4.35;;
57573;SDS011;43409;48.858;21.906;2022-08-19T00:34:11;10.73;;;4.15;;
57573;SDS011;43409;48.858;21.906;2022-08-19T00:36:39;14.63;;;5.20;;
57573;SDS011;43409;48.858;21.906;2022-08-19T00:39:05;6.63;;;4.68;;
57573;SDS011;43409;48.858;21.906;2022-08-19T00:41:31;6.40;;;4.00;;
57573;SDS011;43409;48.858;21.906;2022-08-19T00:43:58;7.03;;;4.57;;
57573;SDS011;43409;48.858;21.906;2022-08-19T00:46:24;4.63;;;4.22;;
57573;SDS011;43409;48.858;21.906;2022-08-19T00:48:49;4.55;;;4.15;;
57573;SDS011;43409;48.858;21.906;2022-08-19T00:51:15;7.63;;;4.05;;
57573;SDS011;43409;48.858;21.906;2022-08-19T00:53:41;5.45;;;4.50;;
57573;SDS011;43409;48.858;21.906;2022-08-19T00:56:07;4.95;;;4.25;;
57573;SDS011;43409;48.858;21.906;2022-08-19T00:58:33;4.75;;;4.32;;
57573;SDS011;43409;48.858;21.906;2022-08-19T01:01:00;4.97;;;4.30;;
57573;SDS011;43409;48.858;21.906;2022-08-19T01:03:26;6.40;;;4.28;;
57573;SDS011;43409;48.858;21.906;2022-08-19T01:05:52;4.28;;;3.97;;
57573;SDS011;43409;48.858;21.906;2022-08-19T01:08:19;6.30;;;4.63;;
57573;SDS011;43409;48.858;21.906;2022-08-19T01:10:50;4.72;;;4.25;;
57573;SDS011;43409;48.858;21.906;2022-08-19T01:13:24;6.40;;;4.18;;
57573;SDS011;43409;48.858;21.906;2022-08-19T01:15:58;8.48;;;4.47;;
57573;SDS011;43409;48.858;21.906;2022-08-19T01:18:27;9.57;;;4.55;;
57573;SDS011;43409;48.858;21.906;2022-08-19T01:20:54;4.85;;;4.30;;
57573;SDS011;43409;48.858;21.906;2022-08-19T01:23:23;9.93;;;4.30;;
57573;SDS011;43409;48.858;21.906;2022-08-19T01:26:07;7.90;;;4.15;;
57573;SDS011;43409;48.858;21.906;2022-08-19T01:28:41;4.70;;;4.30;;
57573;SDS011;43409;48.858;21.906;2022-08-19T01:31:09;6.70;;;4.80;;
57573;SDS011;43409;48.858;21.906;2022-08-19T01:33:37;8.95;;;4.60;;
57573;SDS011;43409;48.858;21.906;2022-08-19T01:36:07;6.80;;;4.28;;
57573;SDS011;43409;48.858;21.906;2022-08-19T01:38:36;4.43;;;4.10;;
57573;SDS011;43409;48.858;21.906;2022-08-19T01:41:04;5.15;;;4.65;;
57573;SDS011;43409;48.858;21.906;2022-08-19T01:43:31;4.85;;;4.45;;
57573;SDS011;43409;48.858;21.906;2022-08-19T01:45:57;5.22;;;4.53;;
57573;SDS011;43409;48.858;21.906;2022-08-19T01:48:22;4.75;;;4.35;;
57573;SDS011;43409;48.858;21.906;2022-08-19T01:50:48;4.97;;;4.45;;
57573;SDS011;43409;48.858;21.906;2022-08-19T01:53:14;5.07;;;4.53;;
57573;SDS011;43409;48.858;21.906;2022-08-19T01:55:41;8.18;;;4.07;;
57573;SDS011;43409;48.858;21.906;2022-08-19T01:58:13;6.43;;;4.30;;
57573;SDS011;43409;48.858;21.906;2022-08-19T02:00:42;5.97;;;4.45;;
57573;SDS011;43409;48.858;21.906;2022-08-19T02:03:08;6.13;;;4.10;;
57573;SDS011;43409;48.858;21.906;2022-08-19T02:05:34;7.00;;;4.40;;
57573;SDS011;43409;48.858;21.906;2022-08-19T02:08:00;8.55;;;4.45;;
57573;SDS011;43409;48.858;21.906;2022-08-19T02:10:25;7.95;;;4.63;;
57573;SDS011;43409;48.858;21.906;2022-08-19T02:12:51;6.70;;;4.10;;
57573;SDS011;43409;48.858;21.906;2022-08-19T02:15:18;8.07;;;4.40;;
57573;SDS011;43409;48.858;21.906;2022-08-19T02:17:44;6.30;;;4.45;;
57573;SDS011;43409;48.858;21.906;2022-08-19T02:20:10;4.93;;;4.53;;
57573;SDS011;43409;48.858;21.906;2022-08-19T02:22:37;4.53;;;4.22;;
57573;SDS011;43409;48.858;21.906;2022-08-19T02:25:02;7.07;;;4.63;;
57573;SDS011;43409;48.858;21.906;2022-08-19T02:27:30;9.05;;;4.78;;
57573;SDS011;43409;48.858;21.906;2022-08-19T02:29:55;13.23;;;4.22;;
57573;SDS011;43409;48.858;21.906;2022-08-19T02:32:21;5.40;;;4.88;;
57573;SDS011;43409;48.858;21.906;2022-08-19T02:34:47;10.93;;;4.55;;
57573;SDS011;43409;48.858;21.906;2022-08-19T02:37:13;11.57;;;4.82;;
57573;SDS011;43409;48.858;21.906;2022-08-19T02:39:58;5.80;;;4.50;;
57573;SDS011;43409;48.858;21.906;2022-08-19T02:42:24;4.85;;;4.50;;
57573;SDS011;43409;48.858;21.906;2022-08-19T02:44:50;5.18;;;4.68;;
57573;SDS011;43409;48.858;21.906;2022-08-19T02:47:17;8.52;;;4.60;;
57573;SDS011;43409;48.858;21.906;2022-08-19T02:49:43;4.90;;;4.38;;
57573;SDS011;43409;48.858;21.906;2022-08-19T02:52:09;12.20;;;5.00;;
57573;SDS011;43409;48.858;21.906;2022-08-19T02:54:36;6.32;;;4.25;;
57573;SDS011;43409;48.858;21.906;2022-08-19T02:57:02;10.55;;;4.93;;
57573;SDS011;43409;48.858;21.906;2022-08-19T02:59:30;8.10;;;4.82;;
57573;SDS011;43409;48.858;21.906;2022-08-19T03:01:56;9.35;;;4.80;;
57573;SDS011;43409;48.858;21.906;2022-08-19T03:04:21;6.60;;;4.78;;
57573;SDS011;43409;48.858;21.906;2022-08-19T03:06:48;7.00;;;4.85;;
57573;SDS011;43409;48.858;21.906;2022-08-19T03:09:14;5.18;;;4.53;;
57573;SDS011;43409;48.858;21.906;2022-08-19T03:11:40;8.27;;;4.68;;
57573;SDS011;43409;48.858;21.906;2022-08-19T03:14:06;6.10;;;4.30;;
57573;SDS011;43409;48.858;21.906;2022-08-19T03:16:33;6.70;;;4.72;;
57573;SDS011;43409;48.858;21.906;2022-08-19T03:19:05;8.30;;;4.53;;
57573;SDS011;43409;48.858;21.906;2022-08-19T03:21:31;7.43;;;4.18;;
57573;SDS011;43409;48.858;21.906;2022-08-19T03:24:00;5.78;;;4.25;;
57573;SDS011;43409;48.858;21.906;2022-08-19T03:26:29;6.57;;;5.07;;
57573;SDS011;43409;48.858;21.906;2022-08-19T03:28:55;5.45;;;4.60;;
57573;SDS011;43409;48.858;21.906;2022-08-19T03:31:22;7.47;;;4.60;;
57573;SDS011;43409;48.858;21.906;2022-08-19T03:33:49;4.70;;;4.30;;
57573;SDS011;43409;48.858;21.906;2022-08-19T03:36:18;7.03;;;4.45;;
57573;SDS011;43409;48.858;21.906;2022-08-19T03:38:48;9.00;;;4.72;;
57573;SDS011;43409;48.858;21.906;2022-08-19T03:41:17;5.35;;;4.85;;
57573;SDS011;43409;48.858;21.906;2022-08-19T03:43:44;4.18;;;3.88;;
57573;SDS011;43409;48.858;21.906;2022-08-19T03:46:20;4.78;;;4.22;;
57573;SDS011;43409;48.858;21.906;2022-08-19T03:48:50;6.05;;;4.30;;
57573;SDS011;43409;48.858;21.906;2022-08-19T03:51:21;7.78;;;4.55;;
57573;SDS011;43409;48.858;21.906;2022-08-19T03:53:52;4.88;;;4.55;;
57573;SDS011;43409;48.858;21.906;2022-08-19T03:56:20;7.93;;;4.60;;
57573;SDS011;43409;48.858;21.906;2022-08-19T03:58:46;5.35;;;4.47;;
57573;SDS011;43409;48.858;21.906;2022-08-19T04:01:15;5.50;;;4.18;;
57573;SDS011;43409;48.858;21.906;2022-08-19T04:03:43;7.25;;;4.13;;
57573;SDS011;43409;48.858;21.906;2022-08-19T04:08:36;5.60;;;4.32;;
57573;SDS011;43409;48.858;21.906;2022-08-19T04:11:05;6.22;;;3.92;;
57573;SDS011;43409;48.858;21.906;2022-08-19T04:13:32;4.45;;;4.03;;
57573;SDS011;43409;48.858;21.906;2022-08-19T04:15:58;4.63;;;4.28;;
57573;SDS011;43409;48.858;21.906;2022-08-19T04:18:24;6.63;;;4.28;;
57573;SDS011;43409;48.858;21.906;2022-08-19T04:20:50;6.82;;;4.63;;
57573;SDS011;43409;48.858;21.906;2022-08-19T04:23:16;4.45;;;4.13;;
57573;SDS011;43409;48.858;21.906;2022-08-19T04:25:43;4.55;;;4.20;;
57573;SDS011;43409;48.858;21.906;2022-08-19T04:28:09;5.97;;;4.65;;
57573;SDS011;43409;48.858;21.906;2022-08-19T04:30:38;5.80;;;5.00;;
57573;SDS011;43409;48.858;21.906;2022-08-19T04:33:04;5.57;;;4.47;;
57573;SDS011;43409;48.858;21.906;2022-08-19T04:35:40;5.50;;;4.10;;
57573;SDS011;43409;48.858;21.906;2022-08-19T04:38:07;6.10;;;4.50;;
57573;SDS011;43409;48.858;21.906;2022-08-19T04:40:33;4.40;;;4.00;;
57573;SDS011;43409;48.858;21.906;2022-08-19T04:43:17;6.47;;;4.13;;
57573;SDS011;43409;48.858;21.906;2022-08-19T04:45:43;6.70;;;4.68;;
57573;SDS011;43409;48.858;21.906;2022-08-19T04:48:10;7.85;;;4.75;;
57573;SDS011;43409;48.858;21.906;2022-08-19T04:50:39;5.15;;;4.57;;
57573;SDS011;43409;48.858;21.906;2022-08-19T04:53:06;4.88;;;4.47;;
57573;SDS011;43409;48.858;21.906;2022-08-19T04:55:32;5.75;;;4.22;;
57573;SDS011;43409;48.858;21.906;2022-08-19T04:57:57;6.78;;;4.45;;
57573;SDS011;43409;48.858;21.906;2022-08-19T05:00:23;9.23;;;4.88;;
57573;SDS011;43409;48.858;21.906;2022-08-19T05:02:48;5.30;;;4.80;;
57573;SDS011;43409;48.858;21.906;2022-08-19T05:05:14;6.43;;;5.05;;
57573;SDS011;43409;48.858;21.906;2022-08-19T05:07:40;29.67;;;5.47;;
57573;SDS011;43409;48.858;21.906;2022-08-19T05:10:06;13.70;;;4.93;;
57573;SDS011;43409;48.858;21.906;2022-08-19T05:12:32;7.45;;;4.15;;
57573;SDS011;43409;48.858;21.906;2022-08-19T05:14:57;6.88;;;4.43;;
57573;SDS011;43409;48.858;21.906;2022-08-19T05:17:24;4.60;;;4.20;;
57573;SDS011;43409;48.858;21.906;2022-08-19T05:19:50;4.60;;;4.25;;
57573;SDS011;43409;48.858;21.906;2022-08-19T05:22:34;12.50;;;4.60;;
57573;SDS011;43409;48.858;21.906;2022-08-19T05:25:08;4.55;;;4.18;;
57573;SDS011;43409;48.858;21.906;2022-08-19T05:27:37;5.32;;;4.50;;
57573;SDS011;43409;48.858;21.906;2022-08-19T05:30:03;5.40;;;4.97;;
57573;SDS011;43409;48.858;21.906;2022-08-19T05:32:29;8.20;;;4.75;;
57573;SDS011;43409;48.858;21.906;2022-08-19T05:34:55;4.78;;;4.38;;
57573;SDS011;43409;48.858;21.906;2022-08-19T05:37:20;4.50;;;4.20;;
57573;SDS011;43409;48.858;21.906;2022-08-19T05:39:47;5.10;;;4.57;;
57573;SDS011;43409;48.858;21.906;2022-08-19T05:42:13;5.13;;;4.35;;
57573;SDS011;43409;48.858;21.906;2022-08-19T05:44:40;8.32;;;4.22;;
57573;SDS011;43409;48.858;21.906;2022-08-19T05:47:11;6.05;;;3.85;;
57573;SDS011;43409;48.858;21.906;2022-08-19T05:49:37;8.50;;;4.97;;
57573;SDS011;43409;48.858;21.906;2022-08-19T05:52:08;5.45;;;4.60;;
57573;SDS011;43409;48.858;21.906;2022-08-19T05:57:02;4.60;;;4.28;;
57573;SDS011;43409;48.858;21.906;2022-08-19T05:59:28;4.97;;;4.47;;
57573;SDS011;43409;48.858;21.906;2022-08-19T06:01:54;9.23;;;4.30;;
57573;SDS011;43409;48.858;21.906;2022-08-19T06:04:20;5.85;;;4.68;;
57573;SDS011;43409;48.858;21.906;2022-08-19T06:06:47;7.05;;;4.68;;
57573;SDS011;43409;48.858;21.906;2022-08-19T06:09:14;5.65;;;4.38;;
57573;SDS011;43409;48.858;21.906;2022-08-19T06:11:41;4.68;;;4.28;;
57573;SDS011;43409;48.858;21.906;2022-08-19T06:14:10;7.15;;;4.55;;
57573;SDS011;43409;48.858;21.906;2022-08-19T06:16:38;4.57;;;4.22;;
57573;SDS011;43409;48.858;21.906;2022-08-19T06:19:07;6.95;;;4.10;;
57573;SDS011;43409;48.858;21.906;2022-08-19T06:21:34;4.30;;;4.00;;
57573;SDS011;43409;48.858;21.906;2022-08-19T06:24:03;4.18;;;3.72;;
57573;SDS011;43409;48.858;21.906;2022-08-19T06:26:33;4.88;;;4.28;;
57573;SDS011;43409;48.858;21.906;2022-08-19T06:29:00;6.18;;;4.28;;
57573;SDS011;43409;48.858;21.906;2022-08-19T06:31:27;8.30;;;4.53;;
57573;SDS011;43409;48.858;21.906;2022-08-19T06:33:54;5.40;;;4.20;;
57573;SDS011;43409;48.858;21.906;2022-08-19T06:36:24;4.05;;;3.60;;
57573;SDS011;43409;48.858;21.906;2022-08-19T06:38:58;6.97;;;4.50;;
57573;SDS011;43409;48.858;21.906;2022-08-19T06:41:34;4.25;;;3.85;;
57573;SDS011;43409;48.858;21.906;2022-08-19T06:44:01;4.57;;;3.95;;
57573;SDS011;43409;48.858;21.906;2022-08-19T06:46:27;6.35;;;3.85;;
57573;SDS011;43409;48.858;21.906;2022-08-19T06:48:52;8.27;;;3.92;;
57573;SDS011;43409;48.858;21.906;2022-08-19T06:51:19;4.07;;;3.78;;
57573;SDS011;43409;48.858;21.906;2022-08-19T06:53:46;4.30;;;4.00;;
57573;SDS011;43409;48.858;21.906;2022-08-19T06:56:16;7.20;;;3.40;;
57573;SDS011;43409;48.858;21.906;2022-08-19T06:58:43;6.28;;;4.30;;
57573;SDS011;43409;48.858;21.906;2022-08-19T07:01:09;4.82;;;4.00;;
57573;SDS011;43409;48.858;21.906;2022-08-19T07:03:35;4.75;;;3.88;;
57573;SDS011;43409;48.858;21.906;2022-08-19T07:06:03;4.03;;;3.72;;
57573;SDS011;43409;48.858;21.906;2022-08-19T07:08:30;7.40;;;3.80;;
57573;SDS011;43409;48.858;21.906;2022-08-19T07:10:56;4.20;;;3.88;;
57573;SDS011;43409;48.858;21.906;2022-08-19T07:13:22;4.40;;;4.03;;
57573;SDS011;43409;48.858;21.906;2022-08-19T07:15:48;11.90;;;4.20;;
57573;SDS011;43409;48.858;21.906;2022-08-19T07:18:15;9.10;;;4.32;;
57573;SDS011;43409;48.858;21.906;2022-08-19T07:20:42;10.45;;;4.28;;
57573;SDS011;43409;48.858;21.906;2022-08-19T07:23:08;8.93;;;4.05;;
57573;SDS011;43409;48.858;21.906;2022-08-19T07:25:35;8.85;;;4.28;;
57573;SDS011;43409;48.858;21.906;2022-08-19T07:28:01;12.43;;;4.60;;
57573;SDS011;43409;48.858;21.906;2022-08-19T07:30:27;9.48;;;4.50;;
57573;SDS011;43409;48.858;21.906;2022-08-19T07:32:53;4.60;;;4.20;;
57573;SDS011;43409;48.858;21.906;2022-08-19T07:35:18;14.73;;;4.43;;
57573;SDS011;43409;48.858;21.906;2022-08-19T07:37:45;10.45;;;4.40;;
57573;SDS011;43409;48.858;21.906;2022-08-19T07:40:11;16.10;;;5.20;;
57573;SDS011;43409;48.858;21.906;2022-08-19T07:42:37;9.48;;;4.57;;
57573;SDS011;43409;48.858;21.906;2022-08-19T07:45:02;7.20;;;4.30;;
57573;SDS011;43409;48.858;21.906;2022-08-19T07:47:29;7.05;;;4.53;;
57573;SDS011;43409;48.858;21.906;2022-08-19T07:49:55;16.83;;;4.30;;
57573;SDS011;43409;48.858;21.906;2022-08-19T07:52:21;5.13;;;3.20;;
57573;SDS011;43409;48.858;21.906;2022-08-19T07:54:47;7.32;;;3.85;;
57573;SDS011;43409;48.858;21.906;2022-08-19T07:57:13;4.07;;;3.78;;
57573;SDS011;43409;48.858;21.906;2022-08-19T07:59:38;4.03;;;3.38;;
57573;SDS011;43409;48.858;21.906;2022-08-19T08:02:05;6.30;;;3.28;;
57573;SDS011;43409;48.858;21.906;2022-08-19T08:04:31;4.32;;;3.22;;
57573;SDS011;43409;48.858;21.906;2022-08-19T08:07:15;12.55;;;3.47;;
57573;SDS011;43409;48.858;21.906;2022-08-19T08:09:59;7.97;;;3.50;;
57573;SDS011;43409;48.858;21.906;2022-08-19T08:12:26;3.85;;;3.30;;
57573;SDS011;43409;48.858;21.906;2022-08-19T08:15:00;8.00;;;2.95;;
57573;SDS011;43409;48.858;21.906;2022-08-19T08:17:31;11.93;;;4.00;;
57573;SDS011;43409;48.858;21.906;2022-08-19T08:19:57;7.53;;;4.00;;
57573;SDS011;43409;48.858;21.906;2022-08-19T08:22:24;5.70;;;3.22;;
57573;SDS011;43409;48.858;21.906;2022-08-19T08:25:16;8.63;;;3.78;;
57573;SDS011;43409;48.858;21.906;2022-08-19T08:27:44;13.27;;;3.75;;
57573;SDS011;43409;48.858;21.906;2022-08-19T08:30:12;22.80;;;4.00;;
57573;SDS011;43409;48.858;21.906;2022-08-19T08:32:40;10.70;;;3.72;;
57573;SDS011;43409;48.858;21.906;2022-08-19T08:35:07;6.43;;;3.38;;
57573;SDS011;43409;48.858;21.906;2022-08-19T08:37:34;6.80;;;3.40;;
57573;SDS011;43409;48.858;21.906;2022-08-19T08:40:08;4.82;;;3.08;;
57573;SDS011;43409;48.858;21.906;2022-08-19T08:42:44;9.60;;;3.38;;
57573;SDS011;43409;48.858;21.906;2022-08-19T08:45:17;5.85;;;3.88;;
57573;SDS011;43409;48.858;21.906;2022-08-19T08:47:44;13.00;;;3.30;;
57573;SDS011;43409;48.858;21.906;2022-08-19T08:52:47;11.97;;;3.97;;
57573;SDS011;43409;48.858;21.906;2022-08-19T08:55:18;6.30;;;3.30;;
57573;SDS011;43409;48.858;21.906;2022-08-19T09:00:17;5.05;;;3.13;;
57573;SDS011;43409;48.858;21.906;2022-08-19T09:02:46;4.40;;;3.33;;
57573;SDS011;43409;48.858;21.906;2022-08-19T09:05:11;3.42;;;3.22;;
57573;SDS011;43409;48.858;21.906;2022-08-19T09:15:50;7.68;;;3.45;;
57573;SDS011;43409;48.858;21.906;2022-08-19T09:18:19;3.63;;;3.30;;
57573;SDS011;43409;48.858;21.906;2022-08-19T09:20:45;7.35;;;3.20;;
57573;SDS011;43409;48.858;21.906;2022-08-19T09:23:12;3.28;;;3.08;;
57573;SDS011;43409;48.858;21.906;2022-08-19T09:25:38;4.28;;;3.20;;
57573;SDS011;43409;48.858;21.906;2022-08-19T09:28:05;3.25;;;2.95;;
57573;SDS011;43409;48.858;21.906;2022-08-19T09:30:32;3.83;;;3.30;;
57573;SDS011;43409;48.858;21.906;2022-08-19T09:32:59;3.90;;;3.50;;
57573;SDS011;43409;48.858;21.906;2022-08-19T09:35:26;4.93;;;3.63;;
57573;SDS011;43409;48.858;21.906;2022-08-19T09:37:54;3.53;;;3.33;;
57573;SDS011;43409;48.858;21.906;2022-08-19T09:40:22;38.00;;;5.57;;
57573;SDS011;43409;48.858;21.906;2022-08-19T09:42:47;8.98;;;3.63;;
57573;SDS011;43409;48.858;21.906;2022-08-19T09:45:14;6.07;;;3.33;;
57573;SDS011;43409;48.858;21.906;2022-08-19T09:47:41;32.88;;;4.35;;
57573;SDS011;43409;48.858;21.906;2022-08-19T09:50:08;9.95;;;3.50;;
57573;SDS011;43409;48.858;21.906;2022-08-19T09:52:37;14.82;;;4.20;;
57573;SDS011;43409;48.858;21.906;2022-08-19T09:55:06;10.05;;;3.65;;
57573;SDS011;43409;48.858;21.906;2022-08-19T09:57:34;4.63;;;3.38;;
57573;SDS011;43409;48.858;21.906;2022-08-19T10:00:00;7.72;;;3.20;;
57573;SDS011;43409;48.858;21.906;2022-08-19T10:02:26;6.03;;;3.00;;
57573;SDS011;43409;48.858;21.906;2022-08-19T10:04:51;5.30;;;3.60;;
57573;SDS011;43409;48.858;21.906;2022-08-19T10:07:35;5.68;;;3.58;;
57573;SDS011;43409;48.858;21.906;2022-08-19T10:10:05;4.38;;;3.20;;
57573;SDS011;43409;48.858;21.906;2022-08-19T10:12:32;4.90;;;3.42;;
57573;SDS011;43409;48.858;21.906;2022-08-19T10:14:58;4.60;;;3.70;;
57573;SDS011;43409;48.858;21.906;2022-08-19T10:17:24;3.33;;;3.13;;
57573;SDS011;43409;48.858;21.906;2022-08-19T10:19:50;5.70;;;3.38;;
57573;SDS011;43409;48.858;21.906;2022-08-19T10:22:17;3.15;;;2.90;;
57573;SDS011;43409;48.858;21.906;2022-08-19T10:24:43;4.57;;;3.00;;
57573;SDS011;43409;48.858;21.906;2022-08-19T10:27:10;8.93;;;3.55;;
57573;SDS011;43409;48.858;21.906;2022-08-19T10:29:35;4.60;;;3.13;;
57573;SDS011;43409;48.858;21.906;2022-08-19T10:32:02;3.45;;;3.15;;
57573;SDS011;43409;48.858;21.906;2022-08-19T10:34:31;5.43;;;3.30;;
57573;SDS011;43409;48.858;21.906;2022-08-19T10:36:56;6.65;;;3.50;;
57573;SDS011;43409;48.858;21.906;2022-08-19T10:39:22;3.28;;;3.08;;
57573;SDS011;43409;48.858;21.906;2022-08-19T10:41:48;4.88;;;3.15;;
57573;SDS011;43409;48.858;21.906;2022-08-19T10:44:13;4.32;;;3.35;;
57573;SDS011;43409;48.858;21.906;2022-08-19T10:46:41;3.53;;;3.22;;
57573;SDS011;43409;48.858;21.906;2022-08-19T10:49:10;3.40;;;3.20;;
57573;SDS011;43409;48.858;21.906;2022-08-19T10:51:36;3.72;;;3.05;;
57573;SDS011;43409;48.858;21.906;2022-08-19T10:54:21;5.78;;;3.28;;
57573;SDS011;43409;48.858;21.906;2022-08-19T10:56:46;3.85;;;3.55;;
57573;SDS011;43409;48.858;21.906;2022-08-19T10:59:21;3.10;;;2.90;;
57573;SDS011;43409;48.858;21.906;2022-08-19T11:01:49;3.90;;;2.95;;
57573;SDS011;43409;48.858;21.906;2022-08-19T11:04:16;3.20;;;3.00;;
57573;SDS011;43409;48.858;21.906;2022-08-19T11:06:46;3.50;;;3.10;;
57573;SDS011;43409;48.858;21.906;2022-08-19T11:09:14;14.80;;;3.47;;
57573;SDS011;43409;48.858;21.906;2022-08-19T11:11:41;11.48;;;4.30;;
57573;SDS011;43409;48.858;21.906;2022-08-19T11:14:12;7.60;;;3.90;;
57573;SDS011;43409;48.858;21.906;2022-08-19T11:16:39;6.45;;;3.50;;
57573;SDS011;43409;48.858;21.906;2022-08-19T11:19:05;8.10;;;3.78;;
57573;SDS011;43409;48.858;21.906;2022-08-19T11:21:34;5.05;;;3.88;;
57573;SDS011;43409;48.858;21.906;2022-08-19T11:24:03;7.53;;;4.38;;
57573;SDS011;43409;48.858;21.906;2022-08-19T11:26:31;9.88;;;3.90;;
57573;SDS011;43409;48.858;21.906;2022-08-19T11:31:46;6.32;;;4.13;;
57573;SDS011;43409;48.858;21.906;2022-08-19T11:34:15;3.90;;;3.17;;
57573;SDS011;43409;48.858;21.906;2022-08-19T11:36:44;4.22;;;3.78;;
57573;SDS011;43409;48.858;21.906;2022-08-19T11:39:11;5.93;;;3.35;;
57573;SDS011;43409;48.858;21.906;2022-08-19T11:41:39;9.15;;;4.18;;
57573;SDS011;43409;48.858;21.906;2022-08-19T11:44:04;10.00;;;3.67;;
57573;SDS011;43409;48.858;21.906;2022-08-19T11:46:32;3.97;;;3.60;;
57573;SDS011;43409;48.858;21.906;2022-08-19T11:48:59;5.43;;;3.55;;
57573;SDS011;43409;48.858;21.906;2022-08-19T11:51:26;3.70;;;3.40;;
57573;SDS011;43409;48.858;21.906;2022-08-19T11:53:53;20.90;;;4.50;;
57573;SDS011;43409;48.858;21.906;2022-08-19T11:56:19;13.75;;;4.15;;
57573;SDS011;43409;48.858;21.906;2022-08-19T11:58:45;32.03;;;4.43;;
57573;SDS011;43409;48.858;21.906;2022-08-19T12:01:12;19.23;;;3.63;;
57573;SDS011;43409;48.858;21.906;2022-08-19T12:03:42;7.65;;;3.92;;
57573;SDS011;43409;48.858;21.906;2022-08-19T12:06:10;11.50;;;3.42;;
57573;SDS011;43409;48.858;21.906;2022-08-19T12:08:39;6.35;;;3.50;;
57573;SDS011;43409;48.858;21.906;2022-08-19T12:11:05;30.10;;;4.03;;
57573;SDS011;43409;48.858;21.906;2022-08-19T12:13:35;7.07;;;3.90;;
57573;SDS011;43409;48.858;21.906;2022-08-19T12:16:01;11.73;;;4.32;;
57573;SDS011;43409;48.858;21.906;2022-08-19T12:18:37;6.68;;;3.38;;
57573;SDS011;43409;48.858;21.906;2022-08-19T12:21:03;9.70;;;3.58;;
57573;SDS011;43409;48.858;21.906;2022-08-19T12:23:29;5.97;;;3.58;;
57573;SDS011;43409;48.858;21.906;2022-08-19T12:25:55;3.70;;;3.40;;
57573;SDS011;43409;48.858;21.906;2022-08-19T12:28:22;4.03;;;3.65;;
57573;SDS011;43409;48.858;21.906;2022-08-19T12:30:49;4.22;;;3.60;;
57573;SDS011;43409;48.858;21.906;2022-08-19T12:33:16;4.45;;;3.53;;
57573;SDS011;43409;48.858;21.906;2022-08-19T12:35:43;3.70;;;3.28;;
57573;SDS011;43409;48.858;21.906;2022-08-19T12:38:12;3.60;;;3.30;;
57573;SDS011;43409;48.858;21.906;2022-08-19T12:40:39;4.93;;;3.50;;
57573;SDS011;43409;48.858;21.906;2022-08-19T12:43:05;6.60;;;2.58;;
57573;SDS011;43409;48.858;21.906;2022-08-19T12:45:31;3.30;;;3.00;;
57573;SDS011;43409;48.858;21.906;2022-08-19T12:47:57;4.05;;;3.03;;
57573;SDS011;43409;48.858;21.906;2022-08-19T12:50:23;8.02;;;3.40;;
57573;SDS011;43409;48.858;21.906;2022-08-19T12:52:48;3.40;;;2.90;;
57573;SDS011;43409;48.858;21.906;2022-08-19T12:55:14;3.50;;;3.08;;
57573;SDS011;43409;48.858;21.906;2022-08-19T12:57:40;4.60;;;2.90;;
57573;SDS011;43409;48.858;21.906;2022-08-19T13:00:07;3.88;;;3.50;;
57573;SDS011;43409;48.858;21.906;2022-08-19T13:02:39;5.68;;;3.35;;
57573;SDS011;43409;48.858;21.906;2022-08-19T13:05:07;7.47;;;3.45;;
57573;SDS011;43409;48.858;21.906;2022-08-19T13:07:36;4.28;;;3.22;;
57573;SDS011;43409;48.858;21.906;2022-08-19T13:10:03;3.60;;;3.05;;
57573;SDS011;43409;48.858;21.906;2022-08-19T13:12:30;3.47;;;3.28;;
57573;SDS011;43409;48.858;21.906;2022-08-19T13:14:55;3.33;;;3.10;;
57573;SDS011;43409;48.858;21.906;2022-08-19T13:17:21;5.90;;;3.35;;
57573;SDS011;43409;48.858;21.906;2022-08-19T13:19:47;5.85;;;2.80;;
57573;SDS011;43409;48.858;21.906;2022-08-19T13:22:12;4.38;;;3.30;;
57573;SDS011;43409;48.858;21.906;2022-08-19T13:24:38;2.97;;;2.72;;
57573;SDS011;43409;48.858;21.906;2022-08-19T13:27:03;3.45;;;3.15;;
57573;SDS011;43409;48.858;21.906;2022-08-19T13:29:29;3.28;;;2.97;;
57573;SDS011;43409;48.858;21.906;2022-08-19T13:32:13;3.38;;;2.92;;
57573;SDS011;43409;48.858;21.906;2022-08-19T13:34:57;3.53;;;2.90;;
57573;SDS011;43409;48.858;21.906;2022-08-19T13:37:23;3.15;;;2.75;;
57573;SDS011;43409;48.858;21.906;2022-08-19T13:42:32;2.92;;;2.70;;
57573;SDS011;43409;48.858;21.906;2022-08-19T13:44:57;2.97;;;2.78;;
57573;SDS011;43409;48.858;21.906;2022-08-19T13:47:23;3.35;;;3.05;;
57573;SDS011;43409;48.858;21.906;2022-08-19T13:49:49;3.55;;;3.15;;
57573;SDS011;43409;48.858;21.906;2022-08-19T13:52:14;2.90;;;2.70;;
57573;SDS011;43409;48.858;21.906;2022-08-19T13:54:40;3.38;;;3.10;;
57573;SDS011;43409;48.858;21.906;2022-08-19T13:57:06;3.60;;;2.92;;
57573;SDS011;43409;48.858;21.906;2022-08-19T13:59:31;2.92;;;2.72;;
57573;SDS011;43409;48.858;21.906;2022-08-19T14:01:58;3.05;;;2.83;;
57573;SDS011;43409;48.858;21.906;2022-08-19T14:04:24;3.00;;;2.80;;
57573;SDS011;43409;48.858;21.906;2022-08-19T14:06:50;3.05;;;2.85;;
57573;SDS011;43409;48.858;21.906;2022-08-19T14:09:15;8.10;;;2.67;;
57573;SDS011;43409;48.858;21.906;2022-08-19T14:11:40;3.35;;;3.05;;
57573;SDS011;43409;48.858;21.906;2022-08-19T14:14:06;2.72;;;2.55;;
57573;SDS011;43409;48.858;21.906;2022-08-19T14:16:31;3.65;;;2.70;;
57573;SDS011;43409;48.858;21.906;2022-08-19T14:18:57;2.75;;;2.55;;
57573;SDS011;43409;48.858;21.906;2022-08-19T14:21:22;2.80;;;2.60;;
57573;SDS011;43409;48.858;21.906;2022-08-19T14:23:50;3.28;;;2.97;;
57573;SDS011;43409;48.858;21.906;2022-08-19T14:26:16;4.03;;;3.00;;
57573;SDS011;43409;48.858;21.906;2022-08-19T14:28:44;2.85;;;2.60;;
57573;SDS011;43409;48.858;21.906;2022-08-19T14:31:11;3.00;;;2.80;;
57573;SDS011;43409;48.858;21.906;2022-08-19T14:33:38;2.88;;;2.47;;
57573;SDS011;43409;48.858;21.906;2022-08-19T14:36:03;3.55;;;3.10;;
57573;SDS011;43409;48.858;21.906;2022-08-19T14:38:30;2.60;;;2.40;;
57573;SDS011;43409;48.858;21.906;2022-08-19T14:41:04;2.78;;;2.65;;
57573;SDS011;43409;48.858;21.906;2022-08-19T14:43:42;2.97;;;2.78;;
57573;SDS011;43409;48.858;21.906;2022-08-19T14:46:11;2.83;;;2.63;;
57573;SDS011;43409;48.858;21.906;2022-08-19T14:48:38;2.95;;;2.75;;
57573;SDS011;43409;48.858;21.906;2022-08-19T14:51:04;3.38;;;3.08;;
57573;SDS011;43409;48.858;21.906;2022-08-19T14:53:33;2.78;;;2.58;;
57573;SDS011;43409;48.858;21.906;2022-08-19T14:55:59;2.78;;;2.58;;
57573;SDS011;43409;48.858;21.906;2022-08-19T14:58:25;2.70;;;2.50;;